createdAt,value
2019-04-05T21:35:59.396Z,18
2019-04-05T21:36:13.837Z,18.1
2019-04-05T21:36:28.605Z,18
2019-04-05T21:36:44.201Z,18.4
2019-04-05T21:36:58.913Z,19
2019-04-05T21:38:40.514Z,28.6
2019-04-05T21:38:55.967Z,31
2019-04-05T21:39:10.475Z,33.700001
2019-04-05T21:39:25.956Z,33.400002
2019-04-05T21:39:40.372Z,34.200001
2019-04-05T21:39:55.698Z,35.299999
2019-04-05T21:40:11.046Z,35.900002
2019-04-05T21:40:25.492Z,35.900002
2019-04-05T21:40:39.848Z,35.700001
2019-04-05T21:40:54.216Z,36.400002
2019-04-05T21:41:08.628Z,35.5
2019-04-05T21:41:23.969Z,37.299999
2019-04-05T21:41:38.319Z,37.099998
2019-04-05T21:41:52.703Z,36.700001
2019-04-05T21:42:07.063Z,37
2019-04-05T21:42:21.459Z,36.400002
2019-04-05T21:42:35.860Z,36.200001
2019-04-05T21:42:50.264Z,36.099998
2019-04-05T21:43:04.743Z,36.599998
2019-04-05T21:43:19.147Z,37
2019-04-05T21:43:33.519Z,36.700001
2019-04-05T21:43:48.006Z,37.299999
2019-04-05T21:44:03.373Z,37.099998
2019-04-05T21:44:17.786Z,37.5
2019-04-05T21:44:32.181Z,37.299999
2019-04-05T21:44:48.569Z,35.900002
2019-04-05T21:45:03.958Z,35.400002
2019-04-05T21:45:18.342Z,34.299999
2019-04-05T21:45:32.706Z,35.099998
2019-04-05T21:45:48.068Z,37.599998
2019-04-05T21:46:02.454Z,38.799999
2019-04-05T21:46:16.815Z,37.099998
2019-04-05T21:46:32.901Z,35.400002
2019-04-05T21:46:47.324Z,37.799999
2019-04-05T21:47:02.698Z,39.400002
2019-04-05T21:47:17.062Z,37.200001
2019-04-05T21:47:31.421Z,35.200001
2019-04-05T21:47:45.824Z,35.799999
2019-04-05T21:48:00.192Z,37.900002
2019-04-05T21:48:15.081Z,39.200001
2019-04-05T21:48:30.742Z,37.799999
2019-04-05T21:48:44.825Z,38.599998
2019-04-05T21:48:59.195Z,39.400002
2019-04-05T21:49:13.628Z,38.299999
2019-04-05T21:49:27.992Z,37.099998
2019-04-05T21:49:43.362Z,37.299999
2019-04-05T21:49:57.761Z,36.599998
2019-04-05T21:50:12.132Z,37.299999
2019-04-05T21:50:26.505Z,38.400002
2019-04-05T21:50:40.890Z,38.400002
2019-04-05T21:50:55.278Z,37.400002
2019-04-05T21:51:09.684Z,37.299999
2019-04-05T21:51:25.025Z,38.099998
2019-04-05T21:51:40.386Z,39.200001
2019-04-05T21:51:54.780Z,39.900002
2019-04-05T21:52:09.155Z,40.5
2019-04-05T21:52:23.564Z,38.799999
2019-04-05T21:52:37.971Z,38.900002
2019-04-05T21:52:52.408Z,39.5
2019-04-05T21:53:07.772Z,38.400002
2019-04-05T21:53:22.197Z,36.900002
2019-04-05T21:53:39.389Z,38.599998
2019-04-05T21:53:55.476Z,38.5
2019-04-05T21:54:09.843Z,38.5
2019-04-05T21:54:25.199Z,38.5
2019-04-05T21:54:47.355Z,37
2019-04-05T21:54:58.940Z,39
2019-04-05T21:55:13.325Z,40.400002
2019-04-05T21:55:27.706Z,39
2019-04-05T21:55:42.102Z,36.099998
2019-04-05T21:55:56.464Z,37.700001
2019-04-05T21:56:10.860Z,40.099998
2019-04-05T21:56:25.285Z,39.5
2019-04-05T21:56:39.673Z,38
2019-04-05T21:56:55.061Z,38.799999
2019-04-05T21:57:09.515Z,39
2019-04-05T21:57:24.858Z,38.799999
2019-04-05T21:57:39.276Z,39.299999
2019-04-05T21:57:53.652Z,40.099998
2019-04-05T21:58:08.011Z,40.400002
2019-04-05T21:58:22.380Z,39.799999
2019-04-05T21:58:37.799Z,41
2019-04-05T21:58:52.178Z,41.299999
2019-04-05T21:59:06.562Z,40.299999
2019-04-05T21:59:21.010Z,40.400002
2019-04-05T21:59:36.376Z,40.5
2019-04-05T21:59:50.970Z,41
2019-04-05T22:00:05.548Z,41.299999
2019-04-05T22:00:22.931Z,39.700001
2019-04-05T22:00:37.614Z,38.900002
2019-04-05T22:00:53.159Z,40.700001
2019-04-05T22:01:10.231Z,41.200001
2019-04-05T22:01:25.041Z,41.200001
2019-04-05T22:01:40.269Z,41
2019-04-05T22:01:55.719Z,41.799999
2019-04-05T22:02:10.179Z,42
2019-04-05T22:02:24.548Z,41.900002
2019-04-05T22:02:39.903Z,43
2019-04-05T22:02:54.585Z,42
2019-04-05T22:03:09.784Z,41.799999
2019-04-05T22:03:24.153Z,42.400002
2019-04-05T22:03:39.258Z,42.099998
2019-04-05T22:03:54.519Z,41.599998
2019-04-05T22:04:09.863Z,41.299999
2019-04-05T22:04:33.862Z,40.599998
2019-04-05T22:04:48.367Z,41.599998
2019-04-05T22:05:04.772Z,41.200001
2019-04-05T22:05:19.202Z,42.200001
2019-04-05T22:05:33.592Z,42.099998
2019-04-05T22:05:49.563Z,41.200001
2019-04-05T22:06:10.090Z,41.599998
2019-04-05T22:06:25.117Z,40.900002
2019-04-05T22:06:40.514Z,40.900002
2019-04-05T22:06:54.878Z,41.599998
2019-04-05T22:07:10.796Z,42.200001
2019-04-05T22:07:27.501Z,42.900002
2019-04-05T22:07:42.118Z,42.700001
2019-04-05T22:07:58.453Z,40.799999
2019-04-05T22:08:14.380Z,42.900002
2019-04-05T22:08:31.086Z,43.200001
2019-04-05T22:08:49.103Z,42.299999
2019-04-05T22:09:04.882Z,44.400002
2019-04-05T22:09:19.499Z,45.700001
2019-04-05T22:09:35.595Z,44.200001
2019-04-05T22:09:50.341Z,43.400002
2019-04-05T22:10:06.079Z,44
2019-04-05T22:10:20.501Z,43.5
2019-04-05T22:10:35.881Z,43.099998
2019-04-05T22:10:50.516Z,43.299999
2019-04-05T22:11:06.314Z,41.599998
2019-04-05T22:11:21.235Z,40.900002
2019-04-05T22:11:38.362Z,42.400002
2019-04-05T22:11:52.998Z,42.599998
2019-04-05T22:12:09.674Z,41.799999
2019-04-05T22:12:26.717Z,43.400002
2019-04-05T22:12:44.672Z,42.900002
2019-04-05T22:13:04.450Z,43.400002
2019-04-05T22:13:20.449Z,41.799999
2019-04-05T22:13:38.935Z,43.5
2019-04-05T22:13:55.758Z,45.700001
2019-04-05T22:14:10.175Z,43.700001
2019-04-05T22:14:27.752Z,42
2019-04-05T22:14:45.246Z,43.400002
2019-04-05T22:15:02.907Z,43.700001
2019-04-05T22:15:22.912Z,43.200001
2019-04-05T22:15:37.809Z,41.299999
2019-04-05T22:15:54.931Z,42.599998
2019-04-05T22:16:09.913Z,44.900002
2019-04-05T22:16:25.906Z,44.799999
2019-04-05T22:16:42.912Z,44.5
2019-04-05T22:16:57.643Z,47.400002
2019-04-05T22:17:14.767Z,47
2019-04-05T22:17:30.196Z,45.200001
2019-04-05T22:17:45.573Z,45.599998
2019-04-05T22:18:02.553Z,43.900002
2019-04-05T22:18:17.130Z,43.700001
2019-04-05T22:18:31.904Z,44.5
2019-04-05T22:18:55.287Z,47.400002
2019-04-05T22:19:09.936Z,46.599998
2019-04-05T22:19:26.926Z,45.799999
2019-04-05T22:19:43.425Z,44.900002
2019-04-05T22:19:59.266Z,45.799999
2019-04-05T22:20:15.509Z,45.700001
2019-04-05T22:20:31.678Z,45.299999
2019-04-05T22:20:46.545Z,44.5
2019-04-05T22:21:02.427Z,45
2019-04-05T22:21:22.167Z,46.200001
2019-04-05T22:21:36.533Z,45.799999
2019-04-05T22:21:51.471Z,46.299999
2019-04-05T22:22:05.965Z,44.599998
2019-04-05T22:22:21.777Z,44.599998
2019-04-05T22:22:38.475Z,48
2019-04-05T22:22:53.542Z,47.200001
2019-04-05T22:23:09.347Z,45.599998
2019-04-05T22:23:24.212Z,46.599998
2019-04-05T22:23:39.960Z,45.400002
2019-04-05T22:23:55.218Z,45.799999
2019-04-05T22:24:10.304Z,48.400002
2019-04-05T22:24:25.591Z,48.299999
2019-04-05T22:24:40.436Z,46
2019-04-05T22:25:01.536Z,44.5
2019-04-05T22:25:16.474Z,43.700001
2019-04-05T22:25:31.819Z,45.799999
2019-04-05T22:25:46.442Z,48.799999
2019-04-05T22:26:01.230Z,47.799999
2019-04-05T22:26:16.619Z,45.799999
2019-04-05T22:26:31.026Z,47.099998
2019-04-05T22:26:46.654Z,48.299999
2019-04-05T22:27:01.641Z,48.200001
2019-04-05T22:27:16.401Z,48.200001
2019-04-05T22:27:32.034Z,48.099998
2019-04-05T22:27:46.639Z,49
2019-04-05T22:28:01.953Z,48.099998
2019-04-05T22:28:19.228Z,45.700001
2019-04-05T22:28:34.083Z,44.5
2019-04-05T22:28:49.165Z,46
2019-04-05T22:29:04.235Z,48.400002
2019-04-05T22:29:18.961Z,49.5
2019-04-05T22:29:34.041Z,49
2019-04-05T22:29:48.420Z,49.799999
2019-04-05T22:30:04.783Z,49.599998
2019-04-05T22:30:19.372Z,47.599998
2019-04-05T22:30:33.758Z,47.700001
2019-04-05T22:30:48.700Z,48.700001
2019-04-05T22:31:03.305Z,49.900002
2019-04-05T22:31:18.869Z,49.599998
2019-04-05T22:31:33.588Z,49.799999
2019-04-05T22:31:48.114Z,51
2019-04-05T22:32:03.022Z,52.400002
2019-04-05T22:32:18.924Z,51
2019-04-05T22:32:33.762Z,50.799999
2019-04-05T22:32:48.883Z,51
2019-04-05T22:33:03.294Z,49.200001
2019-04-05T22:33:18.719Z,48.700001
2019-04-05T22:33:34.286Z,49
2019-04-05T22:33:49.313Z,49.099998
2019-04-05T22:34:05.613Z,49.400002
2019-04-05T22:34:20.209Z,49.599998
2019-04-05T22:34:36.150Z,48.700001
2019-04-05T22:34:50.989Z,47.400002
2019-04-05T22:35:06.496Z,47.700001
2019-04-05T22:35:22.499Z,49.599998
2019-04-05T22:35:37.195Z,50.599998
2019-04-05T22:35:52.660Z,49.599998
2019-04-05T22:36:08.281Z,48
2019-04-05T22:36:23.052Z,49.599998
2019-04-05T22:36:38.923Z,51.200001
2019-04-05T22:36:53.569Z,50.900002
2019-04-05T22:37:08.578Z,50.200001
2019-04-05T22:37:24.030Z,48.799999
2019-04-05T22:37:39.803Z,48.900002
2019-04-05T22:37:54.995Z,49
2019-04-05T22:38:09.472Z,50.400002
2019-04-05T22:38:24.122Z,50.299999
2019-04-05T22:38:38.913Z,50.799999
2019-04-05T22:38:53.944Z,50.900002
2019-04-05T22:39:09.054Z,50.900002
2019-04-05T22:39:24.858Z,52.099998
2019-04-05T22:39:39.661Z,51.5
2019-04-05T22:39:55.532Z,51.400002
2019-04-05T22:40:10.760Z,52.299999
2019-04-05T22:40:26.667Z,51.5
2019-04-05T22:40:41.404Z,50.099998
2019-04-05T22:40:56.665Z,50.400002
2019-04-05T22:41:11.159Z,51.5
2019-04-05T22:41:26.571Z,51.799999
2019-04-05T22:41:42.552Z,50.700001
2019-04-05T22:42:00.882Z,51
2019-04-05T22:42:18.206Z,53.099998
2019-04-05T22:42:32.807Z,52.200001
2019-04-05T22:42:49.438Z,50.900002
2019-04-05T22:43:05.188Z,52.400002
2019-04-05T22:43:20.271Z,54
2019-04-05T22:43:36.155Z,52
2019-04-05T22:43:50.724Z,51.099998
2019-04-05T22:44:05.923Z,50
2019-04-05T22:44:21.464Z,52
2019-04-05T22:44:43.373Z,53.099998
2019-04-05T22:44:58.077Z,52.200001
2019-04-05T22:45:13.734Z,50.799999
2019-04-05T22:45:29.451Z,49.299999
2019-04-05T22:45:44.408Z,51.5
2019-04-05T22:46:00.207Z,54
2019-04-05T22:46:14.812Z,51.900002
2019-04-05T22:46:30.518Z,51
2019-04-05T22:46:45.549Z,53.299999
2019-04-05T22:47:00.197Z,52.900002
2019-04-05T22:47:16.673Z,52
2019-04-05T22:47:32.441Z,52.900002
2019-04-05T22:47:47.898Z,53.900002
2019-04-05T22:48:03.763Z,55.5
2019-04-05T22:48:18.309Z,53.900002
2019-04-05T22:48:34.056Z,52
2019-04-05T22:48:49.446Z,53
2019-04-05T22:49:05.026Z,54.099998
2019-04-05T22:49:21.134Z,54.299999
2019-04-05T22:49:36.163Z,53
2019-04-05T22:49:52.221Z,52.799999
2019-04-05T22:50:07.442Z,50.900002
2019-04-05T22:50:22.360Z,52.5
2019-04-05T22:50:39.007Z,54.299999
2019-04-05T22:50:53.732Z,51.599998
2019-04-05T22:51:09.305Z,50.599998
2019-04-05T22:51:24.213Z,53
2019-04-05T22:51:38.647Z,54.400002
2019-04-05T22:51:54.096Z,53.200001
2019-04-05T22:52:09.157Z,52.799999
2019-04-05T22:52:23.690Z,54
2019-04-05T22:52:38.859Z,52.299999
2019-04-05T22:52:53.660Z,51.599998
2019-04-05T22:53:08.745Z,53
2019-04-05T22:53:23.655Z,53.200001
2019-04-05T22:53:39.433Z,51.5
2019-04-05T22:53:54.489Z,50.599998
2019-04-05T22:54:09.009Z,50.700001
2019-04-05T22:54:25.339Z,52.5
2019-04-05T22:54:40.439Z,55.200001
2019-04-05T22:54:54.822Z,54.799999
2019-04-05T22:55:15.916Z,53.900002
2019-04-05T22:55:31.504Z,52.900002
2019-04-05T22:55:46.363Z,54.200001
2019-04-05T22:56:01.410Z,55.900002
2019-04-05T22:56:16.884Z,55
2019-04-05T22:56:31.308Z,56.299999
2019-04-05T22:56:46.696Z,58.5
2019-04-05T22:57:01.573Z,56.599998
2019-04-05T22:57:16.871Z,54.700001
2019-04-05T22:57:33.700Z,55.200001
2019-04-05T22:57:50.646Z,56.400002
2019-04-05T22:58:06.891Z,56.599998
2019-04-05T22:58:21.858Z,56.099998
2019-04-05T22:58:37.655Z,54.700001
2019-04-05T22:58:52.929Z,52.900002
2019-04-05T22:59:07.670Z,54.900002
2019-04-05T22:59:24.187Z,56.799999
2019-04-05T22:59:38.840Z,54.299999
2019-04-05T22:59:53.699Z,52.799999
2019-04-05T23:00:09.891Z,56
2019-04-05T23:00:25.325Z,57.599998
2019-04-05T23:00:41.088Z,57.599998
2019-04-05T23:00:56.061Z,56.299999
2019-04-05T23:01:11.839Z,57
2019-04-05T23:01:28.234Z,57.099998
2019-04-05T23:01:43.795Z,54.700001
2019-04-05T23:02:00.513Z,55.099998
2019-04-05T23:02:16.852Z,55.200001
2019-04-05T23:02:31.562Z,54.799999
2019-04-05T23:02:47.080Z,54.099998
2019-04-05T23:03:02.355Z,54.599998
2019-04-05T23:03:17.802Z,56.099998
2019-04-05T23:03:33.143Z,56.599998
2019-04-05T23:03:47.939Z,55.200001
2019-04-05T23:04:03.018Z,54.700001
2019-04-05T23:04:18.094Z,56.099998
2019-04-05T23:04:32.776Z,55.799999
2019-04-05T23:04:47.998Z,53.799999
2019-04-05T23:05:04.079Z,54.700001
2019-04-05T23:05:19.568Z,56.700001
2019-04-05T23:05:36.362Z,57.5
2019-04-05T23:05:51.073Z,57.900002
2019-04-05T23:06:05.822Z,56
2019-04-05T23:06:21.379Z,55.700001
2019-04-05T23:06:36.001Z,55
2019-04-05T23:06:51.217Z,55.5
2019-04-05T23:07:06.895Z,52.799999
2019-04-05T23:07:21.862Z,52.299999
2019-04-05T23:07:38.851Z,54.700001
2019-04-05T23:07:53.297Z,55.200001
2019-04-05T23:08:08.800Z,54.200001
2019-04-05T23:08:23.398Z,53.799999
2019-04-05T23:08:39.254Z,53.700001
2019-04-05T23:08:54.770Z,54.5
2019-04-05T23:09:09.987Z,55.400002
2019-04-05T23:09:24.972Z,55.5
2019-04-05T23:09:39.454Z,56.099998
2019-04-05T23:09:53.815Z,55
2019-04-05T23:10:08.192Z,54.299999
2019-04-05T23:10:23.578Z,54.400002
2019-04-05T23:10:38.949Z,55.700001
2019-04-05T23:10:53.333Z,56.5
2019-04-05T23:11:07.699Z,55.700001
2019-04-05T23:11:23.089Z,57.700001
2019-04-05T23:11:38.522Z,58.299999
2019-04-05T23:11:52.896Z,56.5
2019-04-05T23:12:07.381Z,56.099998
2019-04-05T23:12:21.758Z,56.200001
2019-04-05T23:12:36.140Z,55.299999
2019-04-05T23:12:50.539Z,56
2019-04-05T23:13:04.918Z,56.900002
2019-04-05T23:13:19.284Z,54.299999
2019-04-05T23:13:33.723Z,54.900002
2019-04-05T23:13:48.097Z,57.799999
2019-04-05T23:14:02.462Z,59.5
2019-04-05T23:14:16.893Z,58.299999
2019-04-05T23:14:32.260Z,56.599998
2019-04-05T23:14:46.686Z,56.599998
2019-04-05T23:15:01.093Z,57.200001
2019-04-05T23:15:15.485Z,57.099998
2019-04-05T23:15:29.854Z,56.599998
2019-04-05T23:15:44.244Z,57.599998
2019-04-05T23:15:58.621Z,59
2019-04-05T23:16:12.986Z,58
2019-04-05T23:16:27.428Z,56.900002
2019-04-05T23:16:42.783Z,55.799999
2019-04-05T23:16:57.171Z,55.200001
2019-04-05T23:17:11.573Z,56.5
2019-04-05T23:17:25.955Z,56.799999
2019-04-05T23:17:40.326Z,57
2019-04-05T23:17:54.695Z,57.200001
2019-04-05T23:18:09.058Z,55.299999
2019-04-05T23:18:23.439Z,56.099998
2019-04-05T23:18:39.664Z,57.599998
2019-04-05T23:18:55.758Z,55.400002
2019-04-05T23:19:10.136Z,56.5
2019-04-05T23:19:24.534Z,58.900002
2019-04-05T23:19:39.915Z,57.200001
2019-04-05T23:19:56.268Z,55.099998
2019-04-05T23:20:10.689Z,55
2019-04-05T23:20:25.132Z,54.700001
2019-04-05T23:20:39.531Z,53
2019-04-05T23:20:53.929Z,55.099998
2019-04-05T23:21:08.380Z,58.099998
2019-04-05T23:21:22.737Z,57.099998
2019-04-05T23:21:37.103Z,56.700001
2019-04-05T23:21:51.488Z,57
2019-04-05T23:22:06.877Z,57.799999
2019-04-05T23:22:21.327Z,55.799999
2019-04-05T23:22:35.718Z,54.099998
2019-04-05T23:22:50.087Z,56.5
2019-04-05T23:23:04.511Z,57.099998
2019-04-05T23:23:18.912Z,55.400002
2019-04-05T23:23:33.273Z,55.900002
2019-04-05T23:23:48.517Z,56
2019-04-05T23:24:02.900Z,56.599998
2019-04-05T23:24:17.283Z,58.599998
2019-04-05T23:24:31.687Z,58.799999
2019-04-05T23:24:46.081Z,58.599998
2019-04-05T23:25:00.524Z,57.599998
2019-04-05T23:25:22.037Z,56.299999
2019-04-05T23:25:35.206Z,56.400002
2019-04-05T23:25:49.586Z,56.5
2019-04-05T23:26:03.999Z,57.400002
2019-04-05T23:26:19.435Z,57.799999
2019-04-05T23:26:35.511Z,57.099998
2019-04-05T23:26:49.912Z,56.700001
2019-04-05T23:27:05.275Z,56.700001
2019-04-05T23:27:19.639Z,55.700001
2019-04-05T23:27:34.023Z,55.5
2019-04-05T23:27:48.374Z,55.599998
2019-04-05T23:28:02.764Z,54.799999
2019-04-05T23:28:17.153Z,56.400002
2019-04-05T23:28:31.527Z,55.799999
2019-04-05T23:28:46.922Z,53.900002
2019-04-05T23:29:01.323Z,55.099998
2019-04-05T23:29:15.690Z,56.099998
2019-04-05T23:29:31.082Z,55.5
2019-04-05T23:29:45.461Z,55.400002
2019-04-05T23:29:59.860Z,55.799999
2019-04-05T23:30:14.219Z,55.400002
2019-04-05T23:30:28.577Z,54.200001
2019-04-05T23:30:42.939Z,55.700001
2019-04-05T23:30:57.306Z,56.5
2019-04-05T23:31:11.685Z,55.599998
2019-04-05T23:31:26.093Z,54.599998
2019-04-05T23:31:40.488Z,55.400002
2019-04-05T23:31:55.847Z,56.400002
2019-04-05T23:32:10.296Z,55.299999
2019-04-05T23:32:24.663Z,55.599998
2019-04-05T23:32:39.105Z,56.5
2019-04-05T23:32:53.558Z,56.5
2019-04-05T23:33:09.008Z,56.799999
2019-04-05T23:33:24.330Z,56.700001
2019-04-05T23:33:38.803Z,54.299999
2019-04-05T23:33:53.226Z,54
2019-04-05T23:34:07.605Z,53
2019-04-05T23:34:22.984Z,55.900002
2019-04-05T23:34:37.369Z,56.700001
2019-04-05T23:34:51.782Z,56.799999
2019-04-05T23:35:06.167Z,60.400002
2019-04-05T23:35:20.541Z,60
2019-04-05T23:35:34.898Z,59.200001
2019-04-05T23:35:49.310Z,56.900002
2019-04-05T23:36:05.846Z,56.599998
2019-04-05T23:36:20.249Z,57.900002
2019-04-05T23:36:35.651Z,56.299999
2019-04-05T23:36:50.047Z,57
2019-04-05T23:37:04.474Z,57.599998
2019-04-05T23:37:18.893Z,56
2019-04-05T23:37:33.268Z,57.400002
2019-04-05T23:37:47.646Z,56.400002
2019-04-05T23:38:02.092Z,53.900002
2019-04-05T23:38:16.497Z,55
2019-04-05T23:38:30.867Z,55.099998
2019-04-05T23:38:45.283Z,54.5
2019-04-05T23:38:59.721Z,54
2019-04-05T23:39:14.104Z,53.400002
2019-04-05T23:39:28.492Z,53.900002
2019-04-05T23:39:42.867Z,55.5
2019-04-05T23:39:57.265Z,55.700001
2019-04-05T23:40:11.667Z,54.700001
2019-04-05T23:40:27.748Z,54.799999
2019-04-05T23:40:42.129Z,54.900002
2019-04-05T23:40:56.508Z,57.400002
2019-04-05T23:41:11.902Z,55.400002
2019-04-05T23:41:26.283Z,53.700001
2019-04-05T23:41:40.660Z,55.200001
2019-04-05T23:41:55.034Z,56.299999
2019-04-05T23:42:09.406Z,56.599998
2019-04-05T23:42:23.843Z,56.5
2019-04-05T23:42:38.238Z,53.799999
2019-04-05T23:42:52.645Z,54.799999
2019-04-05T23:43:07.096Z,55.299999
2019-04-05T23:43:21.490Z,56.400002
2019-04-05T23:43:35.926Z,57.400002
2019-04-05T23:43:50.339Z,56.299999
2019-04-05T23:44:04.705Z,55.799999
2019-04-05T23:44:20.074Z,54.299999
2019-04-05T23:44:34.451Z,55.299999
2019-04-05T23:44:49.792Z,57.099998
2019-04-05T23:45:04.164Z,58.5
2019-04-05T23:45:18.547Z,59.700001
2019-04-05T23:45:32.927Z,56.400002
2019-04-05T23:45:47.288Z,54.599998
2019-04-05T23:46:01.680Z,54.799999
2019-04-05T23:46:16.085Z,55.599998
2019-04-05T23:46:30.513Z,55.5
2019-04-05T23:46:44.895Z,56.900002
2019-04-05T23:47:00.250Z,56.400002
2019-04-05T23:47:14.678Z,55.799999
2019-04-05T23:47:29.049Z,57.299999
2019-04-05T23:47:43.424Z,55.599998
2019-04-05T23:47:57.852Z,54.599998
2019-04-05T23:48:12.275Z,55.299999
2019-04-05T23:48:26.660Z,56
2019-04-05T23:48:42.067Z,56.5
2019-04-05T23:48:56.486Z,56
2019-04-05T23:49:10.915Z,55.099998
2019-04-05T23:49:25.314Z,53.299999
2019-04-05T23:49:39.683Z,52.799999
2019-04-05T23:49:54.072Z,54.799999
2019-04-05T23:50:08.474Z,54.599998
2019-04-05T23:50:22.837Z,54.900002
2019-04-05T23:50:37.228Z,55
2019-04-05T23:50:51.611Z,56.5
2019-04-05T23:51:06.045Z,58.099998
2019-04-05T23:51:20.447Z,56.700001
2019-04-05T23:51:34.834Z,56.5
2019-04-05T23:51:49.199Z,57.299999
2019-04-05T23:52:03.587Z,55.200001
2019-04-05T23:52:18.091Z,56.400002
2019-04-05T23:52:32.498Z,56.5
2019-04-05T23:52:46.915Z,56.599998
2019-04-05T23:53:01.298Z,57.400002
2019-04-05T23:53:16.675Z,56.700001
2019-04-05T23:53:31.042Z,54.799999
2019-04-05T23:53:45.423Z,54.200001
2019-04-05T23:53:59.844Z,55.599998
2019-04-05T23:54:14.229Z,55.5
2019-04-05T23:54:28.599Z,55.799999
2019-04-05T23:54:42.982Z,57.599998
2019-04-05T23:54:57.368Z,56.299999
2019-04-05T23:55:11.759Z,53.400002
2019-04-05T23:55:33.367Z,53.900002
2019-04-05T23:55:47.446Z,54.700001
2019-04-05T23:56:01.837Z,54.400002
2019-04-05T23:56:16.216Z,53.099998
2019-04-05T23:56:30.603Z,54
2019-04-05T23:56:44.986Z,55.200001
2019-04-05T23:56:59.397Z,55.299999
2019-04-05T23:57:13.782Z,55.5
2019-04-05T23:57:29.147Z,56.599998
2019-04-05T23:57:43.544Z,55.400002
2019-04-05T23:57:59.602Z,54.400002
2019-04-05T23:58:13.295Z,53.599998
2019-04-05T23:58:28.693Z,54.900002
2019-04-05T23:58:43.067Z,55.200001
2019-04-05T23:58:57.430Z,53.5
2019-04-05T23:59:12.826Z,52.5
2019-04-05T23:59:28.180Z,52.099998
2019-04-05T23:59:42.571Z,55.099998
2019-04-05T23:59:56.943Z,56
